Omak, WA

8:07 PM PST on November 27, 2014 (GMT -0800)
MesoWest OMAK WA US AGRIMET | Change Station
CLOSE
Current Station
Personal Weather Station
Location: Omak, WA
Elevation: 1233 ft
Nearby Weather Stations

Elev 1233 ft 48.40 °N, 119.58 °W | Updated 1 hour ago

Clear
Clear
36.0 °F
Feels Like 36.0 °F
N
1.0
Wind Variable Wind from West
Gusts 2.0 mph

Today
High -- | Low -- °F
--% Chance of Precip.
Yesterday
High -- | Low -- °F
Precip. -- in
7:23 AM 4:08 PM
Waxing Crescent, 36% visible
Pressure 29.67 in
Visibility 10.0 miles
Clouds Clear
Dew Point 36.0 °F
Humidity 100%
Rainfall 0.00 in
Snow Depth Not available.
UV 0 out of 12
Pollen .40 out of 12
Air Quality Not available.
Flu Activity Not available.
METAR KOMK 280353Z AUTO 20012KT 10SM CLR 07/04 A2964 RMK AO2 SLP046 T00720039

More Conditions Fewer Conditions

Pressure 29.67 in
Visibility 10.0 miles
Clouds Clear
Dew Point 36.0 °F
Humidity 100%
Rainfall 0.00 in
Snow Depth Not available.
UV 0 out of 12
Pollen .40 out of 12
Air Quality Not available.
Flu Activity Not available.
METAR KOMK 280353Z AUTO 20012KT 10SM CLR 07/04 A2964 RMK AO2 SLP046 T00720039

More Conditions Fewer Conditions

10-Day Weather Forecast

Almanac

Astronomy

Nov. 27, 2014 Rise Set
Actual Time
Civil Twilight
Nautical Twilight
Astronomical Twilight
Moon
Length of Visible Light
Length of Day
Tomorrow will be .
, % of the Moon is Illuminated

Today's Extremes

State Highs State Lows

Community

WunderPhotos

Upload Photos

1,774,176 photos uploaded!

WunderBlogs® & News

Nearby

Air Quality

  Air Quality AQ Index Pollutant
Not available.

Snow Depth

Station Depth Elevation

Earthquake Activity

City Distance Mag. Time & Date
Minimum magnitude displayed is 2.5.

Coastal Water Temperatures

Place Temperature

Nearby Weather Stations